Time;durP1;ratioP1;P1;durP2;ratioP2;P2;SDS_P1;SDS_P2;PMS_P1;PMS_P2;Temp;Humidity;BMP_temperature;BMP_pressure;BME280_temperature;BME280_humidity;BME280_pressure;Samples;Min_cycle;Max_cycle;Signal;HPM_P1;HPM_P2
2024/02/02 00:02:05;;;;;;;7.40;6.60;;;4.60;99.90;;;;;;4957563;28;20189;-72
2024/02/02 00:04:31;;;;;;;8.23;5.97;;;4.70;99.90;;;;;;4962828;28;20177;-72
2024/02/02 00:06:56;;;;;;;9.10;5.00;;;4.70;99.90;;;;;;4964310;28;20439;-72
2024/02/02 00:09:22;;;;;;;7.67;5.40;;;4.70;99.90;;;;;;4966064;28;20550;-72
2024/02/02 00:11:47;;;;;;;8.20;5.40;;;4.70;99.90;;;;;;4973066;28;20222;-72
2024/02/02 00:14:13;;;;;;;5.67;4.70;;;4.70;99.90;;;;;;4963224;28;20208;-72
2024/02/02 00:16:38;;;;;;;7.50;5.10;;;4.70;99.90;;;;;;4970215;28;20185;-72
2024/02/02 00:19:04;;;;;;;3.63;3.33;;;4.80;99.90;;;;;;4965153;28;20208;-72
2024/02/02 00:21:29;;;;;;;7.77;4.20;;;4.70;99.90;;;;;;4970265;28;20192;-72
2024/02/02 00:23:55;;;;;;;9.27;5.10;;;4.80;99.90;;;;;;4973365;28;20219;-72
2024/02/02 00:26:20;;;;;;;7.27;4.30;;;4.80;99.90;;;;;;4969041;28;20184;-72
2024/02/02 00:28:46;;;;;;;6.60;4.50;;;4.80;99.90;;;;;;4963304;28;20222;-72
2024/02/02 00:31:11;;;;;;;5.00;3.80;;;4.80;99.90;;;;;;4966119;28;20658;-73
2024/02/02 00:33:37;;;;;;;8.30;4.17;;;4.70;99.90;;;;;;4966060;28;20342;-72
2024/02/02 00:36:05;;;;;;;7.23;4.03;;;4.70;99.90;;;;;;4967724;28;20267;-74
2024/02/02 00:38:31;;;;;;;5.97;3.77;;;4.70;99.90;;;;;;4967674;28;20200;-72
2024/02/02 00:40:56;;;;;;;10.67;3.93;;;4.70;99.90;;;;;;4967004;28;20450;-72
2024/02/02 00:43:22;;;;;;;6.70;4.10;;;4.60;99.90;;;;;;4960417;28;20181;-72
2024/02/02 00:45:47;;;;;;;6.63;3.93;;;4.50;99.90;;;;;;4961419;28;20560;-73
2024/02/02 00:48:13;;;;;;;8.00;4.10;;;4.50;99.90;;;;;;4968673;28;20208;-73
2024/02/02 00:50:38;;;;;;;15.10;6.77;;;4.50;99.90;;;;;;4971847;28;20219;-73
2024/02/02 00:53:04;;;;;;;5.30;3.53;;;4.50;99.90;;;;;;4958118;28;20300;-73
2024/02/02 00:55:30;;;;;;;7.80;4.40;;;4.50;99.90;;;;;;4960627;28;20270;-72
2024/02/02 00:57:55;;;;;;;11.20;5.03;;;4.50;99.90;;;;;;4968361;28;20785;-73
2024/02/02 01:00:21;;;;;;;5.70;3.80;;;4.50;99.90;;;;;;4967551;28;20180;-73
2024/02/02 01:02:46;;;;;;;14.70;5.33;;;4.50;99.90;;;;;;4964097;28;20181;-72
2024/02/02 01:05:13;;;;;;;9.40;6.43;;;4.50;99.90;;;;;;4962352;28;20231;-74
2024/02/02 01:07:39;;;;;;;6.30;4.57;;;4.50;99.90;;;;;;4967361;28;20191;-72
2024/02/02 01:10:05;;;;;;;6.87;4.57;;;4.50;99.90;;;;;;4962886;28;20454;-73
2024/02/02 01:12:32;;;;;;;10.10;5.23;;;4.40;99.90;;;;;;4966040;28;20464;-73
2024/02/02 01:14:57;;;;;;;8.03;4.60;;;4.50;99.90;;;;;;4970844;28;20437;-73
2024/02/02 01:17:23;;;;;;;8.83;4.60;;;4.50;99.90;;;;;;4969184;28;20447;-72
2024/02/02 01:19:48;;;;;;;4.93;3.73;;;4.50;99.90;;;;;;4967191;28;20185;-72
2024/02/02 01:22:15;;;;;;;9.17;4.90;;;4.50;99.90;;;;;;4970255;28;20756;-73
2024/02/02 01:24:40;;;;;;;7.83;3.67;;;4.50;99.90;;;;;;4964866;28;20432;-72
2024/02/02 01:27:06;;;;;;;7.00;3.50;;;4.50;99.90;;;;;;4972402;28;20426;-73
2024/02/02 01:29:33;;;;;;;5.53;3.83;;;4.40;99.90;;;;;;5000110;23;20707;-69
2024/02/02 01:31:59;;;;;;;4.77;3.23;;;4.30;99.90;;;;;;4982648;28;20184;-68
2024/02/02 01:34:24;;;;;;;5.73;2.97;;;4.30;99.90;;;;;;4985981;28;20572;-68
2024/02/02 01:36:51;;;;;;;7.67;3.60;;;4.20;99.90;;;;;;4983400;28;20175;-68
2024/02/02 01:39:16;;;;;;;6.63;4.27;;;4.10;99.90;;;;;;4988765;28;20203;-68
2024/02/02 01:41:43;;;;;;;7.83;3.70;;;4.00;99.90;;;;;;4986793;28;20448;-70
2024/02/02 01:44:09;;;;;;;7.80;3.40;;;4.00;99.90;;;;;;4992087;28;20645;-69
2024/02/02 01:46:35;;;;;;;5.60;4.00;;;4.00;99.90;;;;;;4986338;28;20435;-70
2024/02/02 01:49:01;;;;;;;8.53;3.70;;;4.00;99.90;;;;;;4987797;28;20469;-68
2024/02/02 01:51:26;;;;;;;9.77;3.70;;;4.00;99.90;;;;;;4990234;28;20210;-68
2024/02/02 01:53:52;;;;;;;4.87;3.80;;;4.00;99.90;;;;;;4990754;28;20902;-68
2024/02/02 01:56:18;;;;;;;6.73;2.90;;;4.00;99.90;;;;;;4984607;28;20187;-70
2024/02/02 01:58:44;;;;;;;9.70;3.70;;;4.10;99.90;;;;;;4982122;28;20191;-69
2024/02/02 02:01:10;;;;;;;6.87;4.57;;;4.00;99.90;;;;;;4977605;28;20445;-70
2024/02/02 02:03:36;;;;;;;8.93;4.50;;;4.00;99.90;;;;;;4981293;28;20277;-69
2024/02/02 02:06:01;;;;;;;13.80;4.70;;;4.00;99.90;;;;;;4980802;28;20442;-68
2024/02/02 02:08:27;;;;;;;10.53;4.80;;;4.00;99.90;;;;;;4970658;28;20239;-72
2024/02/02 02:10:52;;;;;;;12.13;3.40;;;4.10;99.90;;;;;;4981885;28;20220;-69
2024/02/02 02:13:18;;;;;;;6.60;4.30;;;4.00;99.90;;;;;;4982398;28;20219;-72
2024/02/02 02:15:44;;;;;;;6.93;3.33;;;3.90;99.90;;;;;;4981775;28;20728;-73
2024/02/02 02:18:09;;;;;;;6.47;3.40;;;3.90;99.90;;;;;;4982269;28;22071;-69
2024/02/02 02:20:36;;;;;;;10.43;4.70;;;4.00;99.90;;;;;;4981538;28;20203;-68
2024/02/02 02:23:03;;;;;;;6.77;4.73;;;4.00;99.90;;;;;;4980051;28;20190;-68
2024/02/02 02:25:28;;;;;;;4.93;3.90;;;4.00;99.90;;;;;;4981623;28;20465;-68
2024/02/02 02:27:54;;;;;;;8.63;5.20;;;4.00;99.90;;;;;;4982721;28;20438;-71
2024/02/02 02:30:19;;;;;;;5.20;4.13;;;4.10;99.90;;;;;;4981645;28;20210;-68
2024/02/02 02:32:45;;;;;;;4.73;3.90;;;4.10;99.90;;;;;;4985765;28;20723;-68
2024/02/02 02:35:11;;;;;;;6.90;4.20;;;4.10;99.90;;;;;;4986082;28;20175;-69
2024/02/02 02:37:36;;;;;;;6.20;3.90;;;4.10;99.90;;;;;;4987183;28;20176;-68
2024/02/02 02:40:02;;;;;;;5.03;3.47;;;4.00;99.90;;;;;;4987374;28;20611;-68
2024/02/02 02:42:27;;;;;;;7.30;4.40;;;4.00;99.90;;;;;;4989895;28;20180;-72
2024/02/02 02:44:53;;;;;;;5.33;4.30;;;4.00;99.90;;;;;;4989631;28;20303;-71
2024/02/02 02:47:19;;;;;;;9.50;4.40;;;4.10;99.90;;;;;;4983238;28;20191;-70
2024/02/02 02:49:44;;;;;;;9.43;3.87;;;4.10;99.90;;;;;;4983959;28;20213;-71
2024/02/02 02:52:10;;;;;;;4.30;3.23;;;4.10;99.90;;;;;;4991885;28;20513;-72
2024/02/02 02:54:35;;;;;;;4.73;4.23;;;4.20;99.90;;;;;;4994689;28;20168;-71
2024/02/02 02:57:01;;;;;;;4.47;4.07;;;4.20;99.90;;;;;;4987940;28;20214;-71
2024/02/02 02:59:28;;;;;;;8.10;4.00;;;4.30;99.90;;;;;;4994010;28;20200;-75
2024/02/02 03:01:55;;;;;;;6.23;3.67;;;4.30;99.90;;;;;;4989926;28;20176;-71
2024/02/02 03:04:21;;;;;;;7.07;5.20;;;4.30;99.90;;;;;;4986570;28;20501;-71
2024/02/02 03:06:48;;;;;;;5.20;4.30;;;4.30;99.90;;;;;;4992687;28;20525;-73
2024/02/02 03:09:14;;;;;;;7.27;4.50;;;4.30;99.90;;;;;;4994393;28;20567;-71
2024/02/02 03:11:40;;;;;;;6.33;4.00;;;4.20;99.90;;;;;;4990310;28;20465;-72
2024/02/02 03:14:05;;;;;;;5.13;3.70;;;4.30;99.90;;;;;;4992849;28;20458;-71
2024/02/02 03:16:31;;;;;;;8.33;4.40;;;4.30;99.90;;;;;;4986662;28;20189;-71
2024/02/02 03:18:57;;;;;;;4.30;3.87;;;4.40;99.90;;;;;;4991439;28;20199;-71
2024/02/02 03:21:22;;;;;;;6.93;4.33;;;4.40;99.90;;;;;;4991201;28;20191;-71
2024/02/02 03:23:48;;;;;;;5.07;4.30;;;4.40;99.90;;;;;;4988475;28;20254;-69
2024/02/02 03:26:13;;;;;;;7.50;4.00;;;4.40;99.90;;;;;;4992170;28;20318;-72
2024/02/02 03:28:39;;;;;;;5.87;3.73;;;4.40;99.90;;;;;;4991916;28;20227;-68
2024/02/02 03:31:04;;;;;;;9.00;4.53;;;4.40;99.90;;;;;;4989043;28;20586;-68
2024/02/02 03:33:30;;;;;;;6.57;5.30;;;4.50;99.90;;;;;;4987187;28;20207;-68
2024/02/02 03:35:55;;;;;;;9.93;5.77;;;4.50;99.90;;;;;;4991342;28;20172;-70
2024/02/02 03:38:21;;;;;;;4.37;3.97;;;4.40;99.90;;;;;;4991537;28;20349;-71
2024/02/02 03:40:46;;;;;;;7.27;3.87;;;4.50;99.90;;;;;;4994673;28;20167;-70
2024/02/02 03:43:12;;;;;;;6.73;4.33;;;4.50;99.90;;;;;;4989639;28;20653;-70
2024/02/02 03:45:38;;;;;;;5.97;4.23;;;4.60;99.90;;;;;;4986392;28;20192;-70
2024/02/02 03:48:04;;;;;;;5.43;4.90;;;4.60;99.90;;;;;;4971544;28;20503;-69
2024/02/02 03:50:29;;;;;;;6.63;4.10;;;4.50;99.90;;;;;;4991186;28;20218;-70
2024/02/02 03:52:55;;;;;;;6.10;4.00;;;4.60;99.90;;;;;;4991255;28;20203;-72
2024/02/02 03:55:21;;;;;;;8.00;5.10;;;4.60;99.90;;;;;;4991125;28;20184;-70
2024/02/02 03:57:46;;;;;;;7.63;4.47;;;4.50;99.90;;;;;;4991558;28;20529;-73
2024/02/02 04:00:13;;;;;;;11.60;5.33;;;4.40;99.90;;;;;;4984587;28;20188;-70
2024/02/02 04:02:38;;;;;;;6.87;5.30;;;4.40;99.90;;;;;;4987285;28;20188;-69
2024/02/02 04:05:05;;;;;;;9.80;5.00;;;4.40;99.90;;;;;;4992801;28;20435;-70
2024/02/02 04:07:31;;;;;;;4.23;3.57;;;4.40;99.90;;;;;;4989172;28;20238;-70
2024/02/02 04:09:56;;;;;;;6.60;3.83;;;4.40;99.90;;;;;;4984065;28;20455;-70
2024/02/02 04:12:21;;;;;;;5.33;4.30;;;4.40;99.90;;;;;;4989295;28;20179;-69
2024/02/02 04:14:47;;;;;;;8.10;4.97;;;4.50;99.90;;;;;;4991552;28;20649;-70
2024/02/02 04:17:12;;;;;;;6.10;4.90;;;4.50;99.90;;;;;;4990051;28;20183;-70
2024/02/02 04:19:38;;;;;;;7.27;4.57;;;4.40;99.90;;;;;;4983955;28;20203;-74
2024/02/02 04:22:03;;;;;;;12.93;4.90;;;4.50;99.90;;;;;;4992655;28;20255;-71
2024/02/02 04:24:29;;;;;;;8.13;5.23;;;4.50;99.90;;;;;;4990741;28;20274;-70
2024/02/02 04:26:54;;;;;;;8.13;5.73;;;4.60;99.90;;;;;;4990357;28;20238;-70
2024/02/02 04:29:20;;;;;;;5.03;4.53;;;4.60;99.90;;;;;;4991639;28;20310;-69
2024/02/02 04:31:46;;;;;;;8.80;4.20;;;4.70;99.90;;;;;;4988664;28;20543;-69
2024/02/02 04:34:11;;;;;;;5.90;3.90;;;4.60;99.90;;;;;;4992427;28;20211;-70
2024/02/02 04:36:37;;;;;;;6.07;5.17;;;4.60;99.90;;;;;;4983334;28;20221;-72
2024/02/02 04:39:04;;;;;;;7.00;4.60;;;4.60;99.90;;;;;;4987496;28;20247;-72
2024/02/02 04:41:30;;;;;;;5.97;5.37;;;4.70;99.90;;;;;;4991189;28;20441;-69
2024/02/02 04:43:55;;;;;;;6.77;5.67;;;4.70;99.90;;;;;;4988591;28;20442;-71
2024/02/02 04:46:21;;;;;;;8.10;4.83;;;4.80;99.90;;;;;;4990894;28;20878;-69
2024/02/02 04:48:46;;;;;;;5.57;5.03;;;4.80;99.90;;;;;;4992042;28;20199;-69
2024/02/02 04:51:12;;;;;;;9.10;5.37;;;4.90;99.90;;;;;;4993038;28;20175;-69
2024/02/02 04:53:37;;;;;;;8.40;5.53;;;5.00;99.90;;;;;;4992622;28;20234;-69
2024/02/02 04:56:03;;;;;;;8.00;5.03;;;4.90;99.90;;;;;;4990529;28;20250;-70
2024/02/02 04:58:30;;;;;;;8.27;4.23;;;4.80;99.90;;;;;;4990099;28;20503;-71
2024/02/02 05:00:55;;;;;;;6.20;4.53;;;4.90;99.90;;;;;;4989200;28;20664;-70
2024/02/02 05:03:21;;;;;;;8.60;5.17;;;4.90;99.90;;;;;;4988980;28;20443;-70
2024/02/02 05:05:46;;;;;;;7.07;5.83;;;4.90;99.90;;;;;;4989944;28;20226;-70
2024/02/02 05:08:11;;;;;;;7.70;5.47;;;4.90;99.90;;;;;;4981571;28;20293;-71
2024/02/02 05:10:37;;;;;;;6.53;5.90;;;5.00;99.90;;;;;;4984702;28;20202;-69
2024/02/02 05:13:03;;;;;;;9.53;5.20;;;5.00;99.90;;;;;;4990850;28;20211;-70
2024/02/02 05:15:29;;;;;;;12.90;5.90;;;5.00;99.90;;;;;;4991079;28;20183;-70
2024/02/02 05:17:54;;;;;;;7.87;6.40;;;5.00;99.90;;;;;;4989728;28;20180;-69
2024/02/02 05:20:20;;;;;;;6.40;5.80;;;5.00;99.90;;;;;;4981543;28;20184;-70
2024/02/02 05:22:45;;;;;;;6.60;5.57;;;5.00;99.90;;;;;;4992198;28;20191;-69
2024/02/02 05:25:11;;;;;;;11.80;6.73;;;5.10;99.90;;;;;;4990863;28;20179;-72
2024/02/02 05:27:37;;;;;;;6.50;5.70;;;5.10;99.90;;;;;;4989047;28;20211;-69
2024/02/02 05:30:04;;;;;;;7.30;5.90;;;5.10;99.90;;;;;;4990528;28;20509;-69
2024/02/02 05:32:30;;;;;;;10.40;6.13;;;5.20;99.90;;;;;;4981313;28;20211;-70
2024/02/02 05:34:55;;;;;;;7.50;6.40;;;5.20;99.90;;;;;;4984108;28;20482;-69
2024/02/02 05:37:21;;;;;;;8.60;6.57;;;5.20;99.90;;;;;;4982264;28;20234;-69
2024/02/02 05:39:46;;;;;;;7.67;6.87;;;5.30;99.90;;;;;;4983086;28;20203;-71
2024/02/02 05:42:13;;;;;;;8.07;6.10;;;5.30;99.90;;;;;;4980878;28;22322;-72
2024/02/02 05:44:39;;;;;;;13.33;5.90;;;5.30;99.90;;;;;;4980521;28;20266;-71
2024/02/02 05:47:05;;;;;;;6.33;5.60;;;5.30;99.90;;;;;;4980291;28;20458;-73
2024/02/02 05:49:30;;;;;;;8.40;7.30;;;5.30;99.90;;;;;;4976348;28;20458;-69
2024/02/02 05:51:56;;;;;;;9.13;6.67;;;5.20;99.90;;;;;;4982270;28;20179;-70
2024/02/02 05:54:21;;;;;;;7.80;7.00;;;5.20;99.90;;;;;;4982975;28;20215;-73
2024/02/02 05:56:47;;;;;;;8.97;7.30;;;5.20;99.90;;;;;;4981401;28;20182;-69
2024/02/02 05:59:13;;;;;;;8.83;6.53;;;5.20;99.90;;;;;;4981213;28;20214;-70
2024/02/02 06:01:38;;;;;;;8.30;6.87;;;5.10;99.90;;;;;;4980995;28;20175;-70
2024/02/02 06:04:04;;;;;;;7.70;6.90;;;5.10;99.90;;;;;;4982001;28;20201;-69
2024/02/02 06:06:29;;;;;;;6.70;5.97;;;5.20;99.90;;;;;;4982102;28;20241;-69
2024/02/02 06:08:55;;;;;;;9.80;6.87;;;5.30;99.90;;;;;;4983146;28;21156;-72
2024/02/02 06:11:21;;;;;;;8.30;6.50;;;5.30;99.90;;;;;;4980055;28;20198;-70
2024/02/02 06:13:46;;;;;;;7.83;6.57;;;5.30;99.90;;;;;;4982361;28;20574;-72
2024/02/02 06:16:12;;;;;;;9.33;6.93;;;5.30;99.90;;;;;;4982538;28;20234;-69
2024/02/02 06:18:37;;;;;;;8.90;8.07;;;5.40;99.90;;;;;;4982247;28;20199;-69
2024/02/02 06:21:03;;;;;;;8.73;7.20;;;5.40;99.90;;;;;;4981383;28;20184;-69
2024/02/02 06:23:28;;;;;;;9.10;8.20;;;5.30;99.90;;;;;;4982284;28;20266;-71
2024/02/02 06:25:54;;;;;;;8.77;6.63;;;5.30;99.90;;;;;;4980921;28;20183;-69
2024/02/02 06:28:19;;;;;;;12.90;8.10;;;5.30;99.90;;;;;;4984219;28;20681;-70
2024/02/02 06:30:49;;;;;;;19.13;14.20;;;5.20;99.90;;;;;;4984277;28;20187;-70
2024/02/02 06:33:16;;;;;;;13.77;9.73;;;5.20;99.90;;;;;;4984759;28;21601;-69
2024/02/02 06:35:43;;;;;;;8.37;7.33;;;5.20;99.90;;;;;;4986479;28;20434;-70
2024/02/02 06:38:09;;;;;;;9.23;6.93;;;5.20;99.90;;;;;;4984894;28;20512;-71
2024/02/02 06:40:35;;;;;;;8.30;7.50;;;5.20;99.90;;;;;;4984209;28;20434;-69
2024/02/02 06:43:00;;;;;;;11.00;7.60;;;5.30;99.90;;;;;;4985234;28;20219;-69
2024/02/02 06:45:27;;;;;;;10.77;7.60;;;5.40;99.90;;;;;;4986041;28;20192;-69
2024/02/02 06:47:52;;;;;;;14.67;7.83;;;5.50;99.90;;;;;;4993465;28;20230;-70
2024/02/02 06:50:18;;;;;;;10.80;8.00;;;5.50;99.90;;;;;;4992056;28;20442;-69
2024/02/02 06:52:44;;;;;;;9.53;8.53;;;5.60;99.90;;;;;;4981309;28;20214;-69
2024/02/02 06:55:09;;;;;;;10.23;7.80;;;5.60;99.90;;;;;;4985497;28;20218;-70
2024/02/02 06:57:35;;;;;;;11.30;8.20;;;5.60;99.90;;;;;;4984594;28;20568;-72
2024/02/02 07:00:02;;;;;;;9.20;8.30;;;5.50;99.90;;;;;;4985273;28;20198;-69
2024/02/02 07:02:35;;;;;;;11.10;10.03;;;5.50;99.90;;;;;;4985766;28;20183;-71
2024/02/02 07:05:01;;;;;;;10.43;9.00;;;5.50;99.90;;;;;;4985807;28;20442;-69
2024/02/02 07:07:27;;;;;;;9.87;8.87;;;5.50;99.90;;;;;;4986112;28;20453;-69
2024/02/02 07:09:57;;;;;;;20.00;12.23;;;5.40;99.90;;;;;;4984629;28;20454;-72
2024/02/02 07:12:49;;;;;;;17.70;12.83;;;5.40;99.90;;;;;;4983793;28;20250;-69
2024/02/02 07:15:18;;;;;;;17.43;12.33;;;5.40;99.90;;;;;;4992438;28;20443;-69
2024/02/02 07:17:45;;;;;;;11.87;10.13;;;5.40;99.90;;;;;;4983150;28;20466;-73
2024/02/02 07:20:23;;;;;;;10.30;8.43;;;5.60;99.90;;;;;;4985482;28;20445;-69
2024/02/02 07:22:51;;;;;;;12.33;10.50;;;5.60;99.90;;;;;;4992437;28;20437;-69
2024/02/02 07:25:24;;;;;;;12.93;10.00;;;5.60;99.90;;;;;;4992977;28;20505;-69
2024/02/02 07:27:54;;;;;;;14.37;9.30;;;5.70;99.90;;;;;;4985616;28;20434;-67
2024/02/02 07:30:44;;;;;;;12.17;9.90;;;5.80;99.90;;;;;;4992443;28;20807;-76
2024/02/02 07:33:23;;;;;;;14.03;10.27;;;5.90;99.90;;;;;;4997977;28;20478;-74
2024/02/02 07:35:50;;;;;;;10.77;9.60;;;5.90;99.90;;;;;;4992500;28;20941;-76
2024/02/02 07:38:48;;;;;;;14.10;10.13;;;5.90;99.90;;;;;;4988300;28;20460;-76
2024/02/02 07:41:24;;;;;;;13.63;10.83;;;5.80;99.90;;;;;;4984331;28;20534;-76
2024/02/02 07:43:51;;;;;;;11.13;9.97;;;5.90;99.90;;;;;;4980918;28;20990;-75
2024/02/02 07:46:17;;;;;;;17.13;11.80;;;5.90;99.90;;;;;;4980800;28;20516;-76
2024/02/02 07:48:44;;;;;;;19.30;16.70;;;5.90;99.90;;;;;;4983164;28;20514;-76
2024/02/02 07:51:11;;;;;;;12.40;10.10;;;5.90;99.90;;;;;;4984501;28;20459;-75
2024/02/02 07:53:36;;;;;;;10.80;8.40;;;5.90;99.90;;;;;;4972985;28;20522;-72
2024/02/02 07:56:02;;;;;;;13.73;9.63;;;5.90;99.90;;;;;;4982868;28;21009;-68
2024/02/02 07:58:28;;;;;;;12.17;8.47;;;6.00;99.90;;;;;;4981112;28;20763;-77
2024/02/02 08:00:53;;;;;;;10.00;8.37;;;6.10;99.90;;;;;;4984981;28;20446;-78
2024/02/02 08:03:19;;;;;;;11.73;10.30;;;6.10;99.90;;;;;;4980245;28;20206;-77
2024/02/02 08:05:46;;;;;;;11.70;9.23;;;6.20;99.90;;;;;;4991704;28;20175;-77
2024/02/02 08:08:11;;;;;;;11.47;9.30;;;6.20;99.90;;;;;;4984080;28;20211;-77
2024/02/02 08:10:42;;;;;;;11.47;8.83;;;6.20;99.90;;;;;;4991140;28;20465;-76
2024/02/02 08:13:09;;;;;;;11.60;9.03;;;6.30;99.90;;;;;;4994887;28;20196;-77
2024/02/02 08:15:35;;;;;;;11.20;9.10;;;6.30;99.90;;;;;;5000417;28;20435;-78
2024/02/02 08:18:00;;;;;;;10.43;9.27;;;6.30;99.90;;;;;;4994962;28;20472;-78
2024/02/02 08:20:26;;;;;;;12.80;9.83;;;6.40;99.90;;;;;;4991264;28;20175;-78
2024/02/02 08:22:51;;;;;;;11.23;10.03;;;6.40;99.90;;;;;;4992197;28;20190;-77
2024/02/02 08:25:17;;;;;;;10.90;9.17;;;6.50;99.90;;;;;;4992641;28;20191;-76
2024/02/02 08:27:42;;;;;;;10.50;8.17;;;6.50;99.90;;;;;;4981413;28;20215;-76
2024/02/02 08:30:10;;;;;;;10.40;8.67;;;6.60;99.90;;;;;;4987979;28;20250;-76
2024/02/02 08:32:37;;;;;;;9.00;8.10;;;6.80;99.90;;;;;;4986980;28;20218;-77
2024/02/02 08:35:04;;;;;;;9.17;8.27;;;6.90;99.90;;;;;;4991831;28;20446;-77
2024/02/02 08:37:30;;;;;;;10.77;9.50;;;7.00;99.90;;;;;;4986852;28;20449;-77
2024/02/02 08:39:56;;;;;;;9.60;8.63;;;7.10;99.90;;;;;;4991171;28;20459;-76
2024/02/02 08:42:23;;;;;;;12.90;9.03;;;7.20;99.90;;;;;;4990759;28;20216;-77
2024/02/02 08:44:53;;;;;;;9.53;8.20;;;7.30;99.90;;;;;;4988566;28;20438;-76
2024/02/02 08:47:19;;;;;;;10.67;7.60;;;7.30;99.90;;;;;;4992038;28;20573;-77
2024/02/02 08:49:47;;;;;;;9.63;8.53;;;7.20;99.90;;;;;;4990125;28;20481;-76
2024/02/02 08:52:26;;;;;;;8.53;7.67;;;7.10;99.90;;;;;;4988069;28;20211;-78
2024/02/02 08:54:52;;;;;;;9.90;7.77;;;7.00;99.90;;;;;;4986265;28;20431;-77
2024/02/02 08:57:53;;;;;;;9.33;8.13;;;7.00;99.90;;;;;;4990986;28;20426;-78
2024/02/02 09:00:39;;;;;;;9.90;8.90;;;7.10;99.90;;;;;;4991241;28;20218;-78
2024/02/02 09:03:19;;;;;;;8.20;7.10;;;7.10;99.90;;;;;;4985328;28;20435;-75
2024/02/02 09:05:52;;;;;;;8.27;7.47;;;7.10;99.90;;;;;;4992159;28;20433;-75
2024/02/02 09:08:31;;;;;;;8.73;7.30;;;7.20;99.90;;;;;;4989183;28;20919;-75
2024/02/02 09:10:57;;;;;;;8.73;7.40;;;7.30;99.90;;;;;;4990224;28;20426;-76
2024/02/02 09:13:32;;;;;;;10.70;8.70;;;7.40;99.90;;;;;;4993148;28;20465;-76
2024/02/02 09:15:57;;;;;;;11.10;6.97;;;7.40;99.90;;;;;;4985916;28;20175;-77
2024/02/02 09:18:40;;;;;;;7.93;7.13;;;7.50;99.90;;;;;;4995304;28;20454;-77
2024/02/02 09:21:10;;;;;;;7.60;6.90;;;7.50;99.90;;;;;;4994635;28;20191;-78
2024/02/02 09:23:39;;;;;;;6.37;5.70;;;7.60;99.90;;;;;;4991353;28;20529;-77
2024/02/02 09:26:11;;;;;;;10.90;7.43;;;7.60;99.90;;;;;;4985969;28;20470;-77
2024/02/02 09:28:41;;;;;;;8.07;6.83;;;7.60;99.90;;;;;;4993284;28;20462;-77
2024/02/02 09:31:07;;;;;;;8.27;7.47;;;7.70;99.90;;;;;;4992475;28;20449;-77
2024/02/02 09:33:45;;;;;;;7.00;6.40;;;7.80;99.90;;;;;;4991644;28;20545;-76
2024/02/02 09:36:11;;;;;;;8.53;7.40;;;7.80;99.90;;;;;;4992791;28;20781;-77
2024/02/02 09:38:37;;;;;;;7.50;6.70;;;7.70;99.90;;;;;;4990217;28;20545;-79
2024/02/02 09:41:13;;;;;;;10.33;7.20;;;7.70;99.90;;;;;;4996960;28;20459;-78
2024/02/02 09:44:03;;;;;;;9.30;7.17;;;7.80;99.90;;;;;;4993459;28;20283;-77
2024/02/02 09:46:48;;;;;;;7.67;5.40;;;7.80;99.90;;;;;;4984460;28;20462;-78
2024/02/02 09:49:41;;;;;;;6.93;5.90;;;7.90;99.90;;;;;;4994805;28;20829;-79
2024/02/02 09:52:28;;;;;;;6.90;5.93;;;8.00;99.90;;;;;;4996420;28;20434;-77
2024/02/02 09:55:32;;;;;;;8.50;6.70;;;8.00;99.90;;;;;;4994073;28;20427;-79
2024/02/02 09:58:27;;;;;;;7.63;6.87;;;8.00;99.90;;;;;;4959638;28;20449;-79
2024/02/02 10:01:11;;;;;;;10.30;6.00;;;8.10;99.90;;;;;;4991008;28;20937;-79
2024/02/02 10:03:44;;;;;;;6.53;5.93;;;8.10;99.90;;;;;;4998265;28;20417;-79
2024/02/02 10:06:26;;;;;;;8.57;6.00;;;8.10;99.90;;;;;;4999512;28;20943;-78
2024/02/02 10:09:06;;;;;;;6.57;5.87;;;8.00;99.90;;;;;;4993040;28;20494;-78
2024/02/02 10:11:49;;;;;;;6.40;5.73;;;8.00;99.90;;;;;;4991238;28;20485;-78
2024/02/02 10:14:25;;;;;;;6.73;6.13;;;8.10;99.90;;;;;;4997200;28;20534;-78
2024/02/02 10:17:02;;;;;;;6.87;6.10;;;8.10;99.90;;;;;;4995187;28;21031;-77
2024/02/02 10:19:46;;;;;;;6.40;5.27;;;8.10;99.90;;;;;;4988411;28;20882;-78
2024/02/02 10:22:26;;;;;;;5.87;5.27;;;8.20;99.90;;;;;;4994479;28;20444;-77
2024/02/02 10:25:12;;;;;;;6.37;5.40;;;8.20;99.90;;;;;;4989746;28;20438;-78
2024/02/02 10:28:06;;;;;;;6.63;5.13;;;8.20;99.90;;;;;;4990669;28;20942;-79
2024/02/02 10:30:50;;;;;;;5.80;5.20;;;8.20;99.90;;;;;;4983464;28;20477;-78
2024/02/02 10:33:25;;;;;;;6.47;5.50;;;8.30;99.90;;;;;;4992393;28;20540;-79
2024/02/02 10:36:09;;;;;;;5.33;4.83;;;8.80;99.90;;;;;;4992568;28;20457;-80
2024/02/02 10:39:08;;;;;;;5.90;5.40;;;9.90;99.90;;;;;;5001404;28;20461;-80
2024/02/02 10:41:55;;;;;;;5.47;4.93;;;10.50;99.90;;;;;;4997135;28;21256;-81
2024/02/02 10:44:37;;;;;;;6.73;6.17;;;10.80;99.90;;;;;;4996149;28;20439;-80
2024/02/02 10:47:32;;;;;;;5.50;4.90;;;11.20;95.10;;;;;;4998826;28;20466;-80
2024/02/02 10:50:21;;;;;;;5.93;5.53;;;11.40;90.50;;;;;;4994860;28;21041;-79
2024/02/02 10:52:56;;;;;;;4.47;4.07;;;11.50;84.50;;;;;;4998679;28;20501;-79
2024/02/02 10:55:42;;;;;;;4.47;4.07;;;12.00;55.90;;;;;;4997525;28;20965;-79
2024/02/02 10:58:34;;;;;;;4.90;4.50;;;12.50;46.90;;;;;;4987085;28;20966;-77
2024/02/02 11:01:13;;;;;;;4.27;3.87;;;13.70;1.00;;;;;;4992452;28;20445;-77
2024/02/02 11:03:41;;;;;;;4.10;3.80;;;14.50;1.00;;;;;;4993329;28;20520;-77
2024/02/02 11:06:25;;;;;;;4.07;3.77;;;15.70;1.00;;;;;;4993417;28;20427;-77
2024/02/02 11:09:09;;;;;;;4.80;3.33;;;16.10;1.00;;;;;;4991870;28;20472;-77
2024/02/02 11:11:39;;;;;;;4.57;4.20;;;17.00;99.90;;;;;;4985869;28;20430;-77
2024/02/02 11:14:26;;;;;;;4.57;4.27;;;17.10;1.00;;;;;;4992911;28;20536;-76
2024/02/02 11:16:54;;;;;;;3.83;3.53;;;17.00;99.90;;;;;;4995106;28;20442;-77
2024/02/02 11:19:44;;;;;;;9.10;6.03;;;17.00;73.50;;;;;;4993650;28;20482;-76
2024/02/02 11:22:30;;;;;;;4.50;4.10;;;17.50;27.80;;;;;;4976427;28;20438;-77
2024/02/02 11:25:17;;;;;;;3.40;3.20;;;17.60;1.00;;;;;;4993008;28;20821;-76
2024/02/02 11:28:04;;;;;;;4.17;3.90;;;17.10;1.00;;;;;;4994509;28;20932;-76
2024/02/02 11:30:39;;;;;;;3.90;3.70;;;17.60;3.90;;;;;;4981344;28;20951;-75
2024/02/02 11:33:38;;;;;;;3.93;3.53;;;18.20;1.00;;;;;;4991373;28;20485;-77
2024/02/02 11:36:23;;;;;;;4.10;3.23;;;17.90;1.00;;;;;;4989365;28;20447;-77
2024/02/02 11:39:02;;;;;;;4.60;3.80;;;18.30;99.90;;;;;;4990801;28;20619;-74
2024/02/02 11:41:32;;;;;;;3.40;3.20;;;18.50;1.00;;;;;;4985986;28;20438;-73
2024/02/02 11:43:59;;;;;;;3.60;2.57;;;18.10;95.80;;;;;;4990713;28;20799;-74
2024/02/02 11:46:31;;;;;;;4.93;4.40;;;17.80;1.00;;;;;;4992795;28;20806;-73
2024/02/02 11:49:06;;;;;;;2.57;2.37;;;18.30;1.00;;;;;;4989115;28;20450;-72
2024/02/02 11:51:36;;;;;;;3.77;2.77;;;18.80;99.90;;;;;;4988334;28;20461;-74
2024/02/02 11:54:11;;;;;;;3.63;3.40;;;19.10;1.00;;;;;;4991787;28;21080;-77
2024/02/02 11:56:40;;;;;;;4.93;2.60;;;19.40;99.90;;;;;;4989256;28;20525;-78
2024/02/02 11:59:20;;;;;;;5.00;2.13;;;18.70;99.90;;;;;;4990365;28;20461;-75
2024/02/02 12:02:23;;;;;;;2.50;2.40;;;18.50;1.00;;;;;;4994381;28;20444;-74
2024/02/02 12:05:03;;;;;;;2.60;2.40;;;18.50;1.00;;;;;;4982418;28;20436;-78
2024/02/02 12:08:01;;;;;;;2.27;2.07;;;19.00;1.00;;;;;;4985137;28;20415;-77
2024/02/02 12:10:29;;;;;;;4.60;2.73;;;18.50;99.90;;;;;;4990296;28;20525;-77
2024/02/02 12:13:00;;;;;;;2.17;1.97;;;18.40;99.90;;;;;;4987901;28;20465;-70
2024/02/02 12:15:26;;;;;;;2.60;1.90;;;18.40;1.00;;;;;;4986271;28;20449;-69
2024/02/02 12:17:52;;;;;;;2.00;1.73;;;18.30;99.90;;;;;;4994093;28;20431;-70
2024/02/02 12:20:18;;;;;;;2.97;2.23;;;17.80;99.90;;;;;;4988419;28;20438;-70
2024/02/02 12:22:44;;;;;;;5.40;4.90;;;17.20;99.90;;;;;;4992726;28;21944;-69
2024/02/02 12:25:11;;;;;;;1.90;1.80;;;17.40;1.00;;;;;;4989004;28;20196;-69
2024/02/02 12:27:36;;;;;;;4.43;2.67;;;17.40;99.90;;;;;;4990319;28;20428;-69
2024/02/02 12:30:03;;;;;;;3.60;2.20;;;16.90;1.00;;;;;;4990633;28;20508;-69
2024/02/02 12:32:28;;;;;;;2.70;2.40;;;16.40;1.00;;;;;;4992189;28;20211;-70
2024/02/02 12:34:54;;;;;;;2.60;2.10;;;16.50;99.90;;;;;;4990123;28;20470;-69
2024/02/02 12:37:20;;;;;;;2.80;2.20;;;16.80;99.90;;;;;;4980056;28;20180;-69
2024/02/02 12:39:49;;;;;;;1.97;1.73;;;16.40;1.00;;;;;;4987602;28;20441;-69
2024/02/02 12:42:21;;;;;;;2.43;2.23;;;16.10;1.00;;;;;;4992820;28;20732;-69
2024/02/02 12:44:49;;;;;;;2.40;2.20;;;15.50;99.90;;;;;;4990177;28;20415;-69
2024/02/02 12:47:27;;;;;;;3.40;2.10;;;15.40;64.90;;;;;;4984761;28;20510;-69
2024/02/02 12:49:54;;;;;;;2.87;2.67;;;15.70;51.50;;;;;;4993166;28;20537;-70
2024/02/02 12:52:20;;;;;;;1.97;1.77;;;16.30;1.00;;;;;;4987554;28;20439;-69
2024/02/02 12:54:46;;;;;;;2.10;1.90;;;16.30;1.00;;;;;;4994951;28;20578;-70
2024/02/02 12:57:12;;;;;;;2.17;1.97;;;16.60;99.90;;;;;;4980406;28;20517;-69
2024/02/02 12:59:38;;;;;;;2.00;1.90;;;17.00;99.90;;;;;;4992772;28;20454;-69
2024/02/02 13:02:04;;;;;;;4.00;2.23;;;16.50;1.00;;;;;;4991693;28;20183;-69
2024/02/02 13:04:31;;;;;;;3.70;1.93;;;16.30;1.00;;;;;;4992942;28;20175;-69
2024/02/02 13:06:57;;;;;;;12.50;2.17;;;16.30;1.00;;;;;;4993779;28;20437;-69